Juan Dias, Panama
Current Conditions -  °F | °C
As of 4:00 PM on Monday 20 Oct 2014 (Local Time) from MPMG Reporting Station
Rain Showers Rain Showers  
Wind Chill: 81°   Ceiling: 8000
Heat Index: 86°   Visibility: 5mi
Dew Point: 75°   Wind: 3mph
Humidity: 84%   Direction: 180°S
Pressure: 29.83"   Gusts: NA
Location:  8.97°N, 79.51°W
Report Text: MPMG 202100Z 18003KT 8000 VCSH SCT015CB BKN080 27/24 Q1010 NOSIG
Loading
Personal Weather Stations






























Interactive Weather Map
Tropical Storm Tracking
New forecast layout! Learn more

10-Day Weather Forecast

Advertisements
Track Severe Weather on mobile